Boardman, Oregon
Current Conditions -  °F | °C
As of 6:53 PM on Saturday 25 Oct 2014 (Local Time) from KHRI Reporting Station
Clear Clear  
Wind Chill: 56°   Ceiling: Unl
Heat Index: 56°   Visibility: 10mi
Dew Point: 49°   Wind: 9mph
Humidity: 77%   Direction: 180°S
Pressure: 29.53"   Gusts: NA
Location:  45.84°N, 119.7°W
Report Text: KHRI 260153Z AUTO 18008KT 10SM CLR 13/09 A2953 RMK AO2 RAE04 SLP998 P0000 T01330094
Loading
Personal Weather Stations






























Interactive Weather Map
Tropical Storm Tracking
New forecast layout! Learn more

10-Day Weather Forecast

Advertisements
Track Severe Weather on mobile